createdAt,value
2023-05-24T00:00:45.765Z,0.52
2023-05-24T00:01:45.791Z,0.52
2023-05-24T00:02:45.870Z,0.53
2023-05-24T00:03:46.001Z,0.52
2023-05-24T00:04:45.861Z,0.52
2023-05-24T00:05:45.856Z,0.53
2023-05-24T00:06:45.849Z,0.53
2023-05-24T00:07:45.872Z,0.52
2023-05-24T00:08:45.872Z,0.52
2023-05-24T00:09:45.887Z,0.51
2023-05-24T00:10:45.904Z,0.54
2023-05-24T00:11:45.906Z,0.51
2023-05-24T00:12:45.932Z,0.52
2023-05-24T00:13:45.923Z,0.52
2023-05-24T00:14:45.936Z,0.52
2023-05-24T00:15:45.964Z,0.53
2023-05-24T00:16:45.976Z,0.51
2023-05-24T00:17:46.010Z,0.53
2023-05-24T00:18:45.978Z,0.51
2023-05-24T00:19:45.988Z,0.51
2023-05-24T00:20:46.411Z,0.55
2023-05-24T00:21:45.995Z,0.51
2023-05-24T00:22:46.030Z,0.52
2023-05-24T00:23:46.011Z,0.52
2023-05-24T00:24:46.008Z,0.53
2023-05-24T00:25:46.025Z,0.52
2023-05-24T00:26:46.028Z,0.51
2023-05-24T00:27:46.047Z,0.53
2023-05-24T00:28:46.051Z,0.51
2023-05-24T00:29:46.064Z,0.52
2023-05-24T00:30:46.089Z,0.53
2023-05-24T00:31:46.121Z,0.53
2023-05-24T00:32:46.111Z,0.51
2023-05-24T00:33:46.086Z,0.50
2023-05-24T00:34:46.078Z,0.51
2023-05-24T00:35:46.083Z,0.51
2023-05-24T00:36:46.092Z,0.50
2023-05-24T00:37:46.106Z,0.51
2023-05-24T00:38:46.172Z,0.52
2023-05-24T00:39:46.120Z,0.51
2023-05-24T00:40:46.139Z,0.51
2023-05-24T00:41:46.144Z,0.51
2023-05-24T00:42:46.170Z,0.52
2023-05-24T00:43:46.206Z,0.52
2023-05-24T00:44:46.227Z,0.53
2023-05-24T00:45:46.289Z,0.53
2023-05-24T00:46:46.260Z,0.52
2023-05-24T00:47:46.351Z,0.53
2023-05-24T00:48:46.412Z,0.54
2023-05-24T00:49:46.400Z,0.52
2023-05-24T00:50:46.409Z,0.53
2023-05-24T00:51:46.431Z,0.52
2023-05-24T00:52:46.455Z,0.52
2023-05-24T00:53:46.493Z,0.52
2023-05-24T00:54:46.525Z,0.52
2023-05-24T00:55:46.578Z,0.50
2023-05-24T00:56:46.588Z,0.52
2023-05-24T00:57:46.605Z,0.52
2023-05-24T00:58:46.665Z,0.53
2023-05-24T00:59:46.635Z,0.53
2023-05-24T01:00:46.646Z,0.53
2023-05-24T01:01:46.695Z,0.53
2023-05-24T01:02:46.797Z,0.53
2023-05-24T01:03:46.809Z,0.52
2023-05-24T01:04:46.660Z,0.52
2023-05-24T01:05:46.681Z,0.53
2023-05-24T01:06:46.674Z,0.53
2023-05-24T01:07:46.686Z,0.51
2023-05-24T01:08:46.687Z,0.51
2023-05-24T01:09:46.703Z,0.53
2023-05-24T01:10:46.723Z,0.52
2023-05-24T01:11:46.732Z,0.52
2023-05-24T01:12:46.749Z,0.51
2023-05-24T01:13:46.744Z,0.51
2023-05-24T01:14:46.754Z,0.51
2023-05-24T01:15:46.789Z,0.52
2023-05-24T01:16:46.762Z,0.52
2023-05-24T01:17:46.814Z,0.52
2023-05-24T01:18:46.791Z,0.52
2023-05-24T01:19:46.797Z,0.52
2023-05-24T01:20:47.045Z,0.51
2023-05-24T01:21:46.821Z,0.52
2023-05-24T01:22:46.848Z,0.51
2023-05-24T01:23:46.876Z,0.51
2023-05-24T01:24:46.881Z,0.51
2023-05-24T01:25:46.891Z,0.50
2023-05-24T01:26:46.944Z,0.52
2023-05-24T01:27:46.969Z,0.51
2023-05-24T01:28:47.003Z,0.51
2023-05-24T01:29:47.033Z,0.50
2023-05-24T01:30:47.045Z,0.50
2023-05-24T01:31:47.124Z,0.51
2023-05-24T01:32:47.112Z,0.51
2023-05-24T01:33:47.101Z,0.51
2023-05-24T01:34:47.089Z,0.52
2023-05-24T01:35:47.112Z,0.52
2023-05-24T01:36:47.109Z,0.51
2023-05-24T01:37:47.120Z,0.52
2023-05-24T01:38:47.199Z,0.52
2023-05-24T01:39:47.133Z,0.52
2023-05-24T01:40:47.172Z,0.52
2023-05-24T01:41:47.158Z,0.52
2023-05-24T01:42:47.209Z,0.52
2023-05-24T01:43:47.177Z,0.52
2023-05-24T01:44:47.196Z,0.52
2023-05-24T01:45:47.199Z,0.52
2023-05-24T01:46:47.242Z,0.52
2023-05-24T01:47:47.316Z,0.52
2023-05-24T01:48:47.255Z,0.52
2023-05-24T01:49:47.245Z,0.52
2023-05-24T01:50:47.261Z,0.52
2023-05-24T01:51:47.287Z,0.52
2023-05-24T01:52:47.286Z,0.52
2023-05-24T01:53:47.305Z,0.52
2023-05-24T01:54:47.316Z,0.52
2023-05-24T01:55:47.326Z,0.51
2023-05-24T01:56:47.333Z,0.52
2023-05-24T01:57:47.345Z,0.52
2023-05-24T01:58:47.356Z,0.51
2023-05-24T01:59:47.372Z,0.52
2023-05-24T02:00:47.431Z,0.52
2023-05-24T02:01:47.407Z,0.51
2023-05-24T02:02:47.459Z,0.51
2023-05-24T02:03:47.415Z,0.51
2023-05-24T02:04:47.425Z,0.52
2023-05-24T02:05:47.448Z,0.51
2023-05-24T02:06:47.482Z,0.51
2023-05-24T02:07:47.511Z,0.52
2023-05-24T02:08:47.587Z,0.52
2023-05-24T02:09:47.527Z,0.51
2023-05-24T02:10:47.566Z,0.51
2023-05-24T02:11:47.600Z,0.51
2023-05-24T02:12:47.694Z,0.51
2023-05-24T02:13:47.683Z,0.51
2023-05-24T02:14:47.744Z,0.51
2023-05-24T02:15:47.808Z,0.52
2023-05-24T02:16:47.892Z,0.52
2023-05-24T02:17:47.930Z,0.51
2023-05-24T02:18:47.936Z,0.51
2023-05-24T02:19:47.966Z,0.51
2023-05-24T02:20:48.002Z,0.52
2023-05-24T02:21:48.007Z,0.51
2023-05-24T02:22:48.023Z,0.52
2023-05-24T02:23:48.030Z,0.52
2023-05-24T02:24:48.044Z,0.52
2023-05-24T02:25:48.072Z,0.51
2023-05-24T02:26:48.084Z,0.52
2023-05-24T02:27:48.105Z,0.51
2023-05-24T02:28:48.087Z,0.52
2023-05-24T02:29:48.093Z,0.51
2023-05-24T02:30:48.144Z,0.50
2023-05-24T02:31:48.132Z,0.52
2023-05-24T02:32:48.168Z,0.52
2023-05-24T02:33:48.157Z,0.52
2023-05-24T02:34:48.166Z,0.52
2023-05-24T02:35:48.201Z,0.51
2023-05-24T02:36:48.207Z,0.51
2023-05-24T02:37:48.223Z,0.51
2023-05-24T02:38:48.224Z,0.51
2023-05-24T02:39:48.242Z,0.52
2023-05-24T02:40:48.234Z,0.52
2023-05-24T02:41:48.248Z,0.52
2023-05-24T02:42:48.261Z,0.52
2023-05-24T02:43:48.274Z,0.50
2023-05-24T02:44:48.294Z,0.51
2023-05-24T02:45:48.337Z,0.50
2023-05-24T02:46:48.371Z,0.51
2023-05-24T02:47:48.379Z,0.51
2023-05-24T02:48:48.358Z,0.50
2023-05-24T02:49:48.357Z,0.50
2023-05-24T02:50:48.431Z,0.51
2023-05-24T02:51:48.422Z,0.50
2023-05-24T02:52:48.437Z,0.51
2023-05-24T02:53:48.416Z,0.50
2023-05-24T02:54:48.566Z,0.50
2023-05-24T02:55:48.550Z,0.50
2023-05-24T02:56:48.589Z,0.50
2023-05-24T02:57:48.611Z,0.53
2023-05-24T02:58:48.589Z,0.51
2023-05-24T02:59:48.662Z,0.51
2023-05-24T03:00:48.776Z,0.50
2023-05-24T03:01:48.692Z,0.50
2023-05-24T03:02:48.761Z,0.50
2023-05-24T03:03:48.891Z,0.50
2023-05-24T03:04:48.793Z,0.51
2023-05-24T03:05:48.828Z,0.51
2023-05-24T03:06:48.885Z,0.50
2023-05-24T03:07:48.923Z,0.50
2023-05-24T03:08:48.983Z,0.52
2023-05-24T03:09:49.020Z,0.51
2023-05-24T03:10:49.080Z,0.51
2023-05-24T03:11:49.119Z,0.52
2023-05-24T03:12:49.183Z,0.52
2023-05-24T03:13:49.244Z,0.52
2023-05-24T03:14:49.302Z,0.52
2023-05-24T03:15:49.381Z,0.52
2023-05-24T03:16:49.394Z,0.51
2023-05-24T03:17:49.479Z,0.50
2023-05-24T03:18:49.513Z,0.52
2023-05-24T03:19:49.594Z,0.51
2023-05-24T03:20:49.635Z,0.50
2023-05-24T03:21:49.699Z,0.51
2023-05-24T03:22:49.748Z,0.51
2023-05-24T03:23:49.838Z,0.51
2023-05-24T03:24:49.876Z,0.51
2023-05-24T03:25:49.964Z,0.52
2023-05-24T03:26:50.022Z,0.52
2023-05-24T03:27:50.073Z,0.51
2023-05-24T03:28:50.135Z,0.50
2023-05-24T03:29:50.186Z,0.50
2023-05-24T03:30:50.264Z,0.52
2023-05-24T03:31:50.399Z,0.52
2023-05-24T03:32:50.441Z,0.53
2023-05-24T03:33:50.474Z,0.50
2023-05-24T03:34:50.531Z,0.53
2023-05-24T03:35:50.600Z,0.53
2023-05-24T03:36:50.670Z,0.52
2023-05-24T03:37:50.741Z,0.51
2023-05-24T03:38:50.819Z,0.52
2023-05-24T03:39:50.885Z,0.52
2023-05-24T03:40:50.965Z,0.51
2023-05-24T03:41:51.085Z,0.51
2023-05-24T03:42:51.102Z,0.51
2023-05-24T03:43:51.178Z,0.51
2023-05-24T03:44:51.246Z,0.51
2023-05-24T03:45:51.374Z,0.51
2023-05-24T03:46:51.414Z,0.51
2023-05-24T03:47:51.493Z,0.51
2023-05-24T03:48:51.555Z,0.53
2023-05-24T03:49:51.615Z,0.51
2023-05-24T03:50:51.731Z,0.50
2023-05-24T03:51:51.782Z,0.53
2023-05-24T03:52:51.867Z,0.50
2023-05-24T03:53:51.946Z,0.50
2023-05-24T03:54:52.026Z,0.50
2023-05-24T03:55:52.134Z,0.50
2023-05-24T03:56:52.200Z,0.51
2023-05-24T03:57:52.299Z,0.50
2023-05-24T03:58:52.396Z,0.51
2023-05-24T03:59:52.452Z,0.50
2023-05-24T04:00:52.536Z,0.50
2023-05-24T04:01:52.683Z,0.50
2023-05-24T04:02:52.917Z,0.50
2023-05-24T04:03:52.913Z,0.52
2023-05-24T04:04:52.879Z,0.50
2023-05-24T04:05:52.969Z,0.51
2023-05-24T04:06:53.050Z,0.53
2023-05-24T04:07:53.153Z,0.51
2023-05-24T04:08:53.265Z,0.52
2023-05-24T04:09:53.317Z,0.50
2023-05-24T04:10:53.423Z,0.50
2023-05-24T04:11:53.489Z,0.51
2023-05-24T04:12:53.539Z,0.51
2023-05-24T04:13:53.532Z,0.48
2023-05-24T04:14:53.557Z,0.47
2023-05-24T04:15:53.582Z,0.47
2023-05-24T04:16:53.654Z,0.45
2023-05-24T04:17:53.684Z,0.50
2023-05-24T04:18:53.681Z,0.52
2023-05-24T04:19:53.677Z,0.53
2023-05-24T04:20:53.753Z,0.53
2023-05-24T04:21:53.804Z,0.51
2023-05-24T04:22:53.904Z,0.54
2023-05-24T04:23:53.990Z,0.51
2023-05-24T04:24:54.166Z,0.52
2023-05-24T04:25:54.184Z,0.52
2023-05-24T04:26:54.252Z,0.51
2023-05-24T04:27:54.408Z,0.54
2023-05-24T04:28:54.437Z,0.52
2023-05-24T04:29:54.551Z,0.52
2023-05-24T04:30:54.669Z,0.52
2023-05-24T04:31:54.647Z,0.53
2023-05-24T04:32:54.733Z,0.52
2023-05-24T04:33:54.786Z,0.52
2023-05-24T04:34:54.851Z,0.54
2023-05-24T04:35:54.904Z,0.55
2023-05-24T04:36:54.923Z,0.54
2023-05-24T04:37:54.981Z,0.56
2023-05-24T04:38:55.024Z,0.53
2023-05-24T04:39:55.044Z,0.53
2023-05-24T04:40:55.074Z,0.52
2023-05-24T04:41:55.093Z,0.54
2023-05-24T04:42:55.115Z,0.53
2023-05-24T04:43:55.121Z,0.54
2023-05-24T04:44:55.144Z,0.52
2023-05-24T04:45:55.188Z,0.62
2023-05-24T04:46:55.297Z,2.52
2023-05-24T04:47:55.276Z,2.36
2023-05-24T04:48:55.243Z,1.90
2023-05-24T04:49:55.272Z,1.53
2023-05-24T04:50:55.371Z,1.41
2023-05-24T04:51:55.463Z,1.29
2023-05-24T04:52:55.559Z,1.18
2023-05-24T04:53:55.652Z,1.20
2023-05-24T04:54:55.790Z,1.23
2023-05-24T04:55:55.826Z,1.19
2023-05-24T04:56:55.905Z,1.25
2023-05-24T04:57:56.002Z,1.30
2023-05-24T04:58:56.079Z,1.31
2023-05-24T04:59:56.153Z,1.24
2023-05-24T05:00:56.177Z,1.25
2023-05-24T05:01:56.218Z,1.26
2023-05-24T05:02:56.369Z,1.27
2023-05-24T05:03:56.253Z,1.32
2023-05-24T05:04:56.260Z,1.37
2023-05-24T05:05:56.272Z,1.35
2023-05-24T05:06:56.297Z,1.36
2023-05-24T05:07:56.282Z,1.38
2023-05-24T05:08:56.307Z,1.40
2023-05-24T05:09:56.353Z,1.35
2023-05-24T05:10:56.425Z,1.38
2023-05-24T05:11:56.489Z,1.39
2023-05-24T05:12:56.552Z,1.35
2023-05-24T05:13:56.621Z,1.37
2023-05-24T05:14:56.688Z,1.37
2023-05-24T05:15:56.779Z,1.42
2023-05-24T05:16:57.003Z,1.42
2023-05-24T05:17:56.932Z,1.51
2023-05-24T05:18:56.959Z,1.55
2023-05-24T05:19:57.096Z,1.64
2023-05-24T05:20:57.082Z,1.71
2023-05-24T05:21:57.147Z,1.80
2023-05-24T05:22:57.224Z,1.96
2023-05-24T05:23:57.269Z,2.10
2023-05-24T05:24:57.359Z,1.97
2023-05-24T05:25:57.411Z,1.94
2023-05-24T05:26:57.496Z,1.87
2023-05-24T05:27:57.549Z,1.80
2023-05-24T05:28:57.635Z,1.82
2023-05-24T05:29:57.644Z,1.83
2023-05-24T05:30:57.691Z,1.81
2023-05-24T05:31:57.719Z,1.84
2023-05-24T05:32:58.014Z,1.89
2023-05-24T05:33:57.754Z,3.02
2023-05-24T05:34:57.749Z,3.55
2023-05-24T05:35:57.812Z,3.55
2023-05-24T05:36:57.797Z,3.76
2023-05-24T05:37:57.829Z,3.78
2023-05-24T05:38:57.855Z,3.49
2023-05-24T05:39:57.885Z,3.38
2023-05-24T05:40:58.004Z,3.19
2023-05-24T05:41:57.995Z,3.42
2023-05-24T05:42:58.031Z,3.56
2023-05-24T05:43:58.051Z,3.56
2023-05-24T05:44:58.148Z,3.60
2023-05-24T05:45:58.226Z,3.63
2023-05-24T05:46:58.270Z,3.64
2023-05-24T05:47:58.325Z,3.80
2023-05-24T05:48:58.377Z,3.59
2023-05-24T05:49:58.467Z,3.49
2023-05-24T05:50:59.389Z,3.87
2023-05-24T05:51:58.577Z,3.75
2023-05-24T05:52:58.628Z,3.94
2023-05-24T05:53:58.666Z,4.28
2023-05-24T05:54:58.702Z,4.40
2023-05-24T05:55:58.737Z,4.42
2023-05-24T05:57:00.721Z,4.72
2023-05-24T05:57:58.998Z,4.68
2023-05-24T05:58:59.096Z,4.71
2023-05-24T05:59:59.110Z,5.03
2023-05-24T06:00:59.136Z,4.97
2023-05-24T06:01:59.187Z,5.14
2023-05-24T06:02:59.371Z,5.30
2023-05-24T06:03:59.321Z,5.26
2023-05-24T06:04:59.356Z,5.50
2023-05-24T06:05:59.337Z,5.39
2023-05-24T06:06:59.349Z,5.32
2023-05-24T06:07:59.390Z,5.32
2023-05-24T06:08:59.418Z,5.36
2023-05-24T06:09:59.470Z,5.39
2023-05-24T06:10:59.482Z,5.64
2023-05-24T06:11:59.525Z,5.89
2023-05-24T06:12:59.523Z,5.90
2023-05-24T06:13:59.536Z,5.92
2023-05-24T06:14:59.608Z,6.00
2023-05-24T06:15:59.677Z,6.14
2023-05-24T06:17:00.246Z,6.29
2023-05-24T06:17:59.644Z,9.56
2023-05-24T06:19:05.866Z,9.69
2023-05-24T06:20:00.773Z,9.68
2023-05-24T06:20:59.655Z,9.34
2023-05-24T06:21:59.657Z,9.43
2023-05-24T06:22:59.703Z,9.43
2023-05-24T06:23:59.716Z,9.60
2023-05-24T06:24:59.710Z,9.89
2023-05-24T06:25:59.741Z,9.85
2023-05-24T06:26:59.748Z,10.14
2023-05-24T06:27:59.759Z,10.02
2023-05-24T06:28:59.763Z,9.63
2023-05-24T06:29:59.837Z,9.85
2023-05-24T06:30:59.855Z,9.55
2023-05-24T06:31:59.904Z,4.66
2023-05-24T06:32:59.869Z,1.24
2023-05-24T06:34:03.895Z,0.63
2023-05-24T06:34:59.905Z,0.50
2023-05-24T06:35:59.968Z,0.51
2023-05-24T06:36:59.956Z,0.45
2023-05-24T06:38:00.019Z,0.40
2023-05-24T06:39:00.022Z,0.35
2023-05-24T06:40:00.075Z,0.36
2023-05-24T06:41:00.082Z,0.41
2023-05-24T06:42:00.150Z,0.47
2023-05-24T06:43:00.141Z,0.51
2023-05-24T06:44:00.225Z,0.55
2023-05-24T06:45:00.262Z,0.59
2023-05-24T06:46:00.250Z,0.75
2023-05-24T06:47:00.333Z,1.13
2023-05-24T06:48:00.467Z,1.68
2023-05-24T06:49:00.410Z,2.30
2023-05-24T06:50:00.395Z,2.53
2023-05-24T06:51:00.431Z,2.65
2023-05-24T06:52:00.422Z,2.72
2023-05-24T06:53:00.514Z,2.54
2023-05-24T06:54:00.531Z,2.65
2023-05-24T06:55:00.511Z,2.92
2023-05-24T06:56:00.590Z,3.12
2023-05-24T06:57:00.595Z,3.38
2023-05-24T06:58:00.677Z,3.63
2023-05-24T06:59:00.706Z,4.62
2023-05-24T07:00:00.769Z,4.34
2023-05-24T07:01:00.868Z,4.11
2023-05-24T07:02:03.474Z,3.83
2023-05-24T07:03:00.971Z,4.06
2023-05-24T07:04:01.104Z,4.52
2023-05-24T07:05:01.088Z,4.41
2023-05-24T07:06:01.055Z,4.44
2023-05-24T07:07:01.078Z,4.96
2023-05-24T07:08:01.053Z,4.88
2023-05-24T07:09:01.139Z,5.16
2023-05-24T07:10:01.160Z,5.01
2023-05-24T07:11:01.111Z,5.26
2023-05-24T07:12:01.204Z,5.34
2023-05-24T07:13:01.145Z,5.65
2023-05-24T07:14:01.245Z,6.79
2023-05-24T07:15:01.173Z,7.14
2023-05-24T07:16:01.271Z,7.57
2023-05-24T07:17:01.219Z,7.55
2023-05-24T07:18:01.275Z,7.71
2023-05-24T07:19:03.969Z,7.48
2023-05-24T07:20:01.279Z,7.51
2023-05-24T07:21:01.452Z,7.60
2023-05-24T07:22:01.340Z,7.69
2023-05-24T07:23:01.329Z,8.20
2023-05-24T07:24:01.376Z,8.00
2023-05-24T07:25:01.388Z,8.55
2023-05-24T07:26:01.621Z,8.87
2023-05-24T07:27:01.430Z,8.84
2023-05-24T07:28:01.435Z,8.83
2023-05-24T07:29:01.465Z,8.21
2023-05-24T07:30:01.481Z,8.04
2023-05-24T07:31:01.527Z,8.08
2023-05-24T07:32:01.614Z,8.26
2023-05-24T07:33:01.865Z,8.49
2023-05-24T07:34:01.550Z,8.44
2023-05-24T07:35:01.635Z,9.22
2023-05-24T07:36:01.611Z,9.79
2023-05-24T07:37:01.731Z,10.11
2023-05-24T07:38:01.688Z,8.83
2023-05-24T07:39:01.681Z,8.55
2023-05-24T07:40:01.723Z,7.39
2023-05-24T07:41:01.701Z,7.36
2023-05-24T07:42:01.784Z,7.28
2023-05-24T07:43:03.776Z,5.18
2023-05-24T07:44:01.734Z,5.40
2023-05-24T07:45:01.821Z,4.70
2023-05-24T07:46:01.830Z,5.10
2023-05-24T07:47:01.765Z,4.34
2023-05-24T07:48:02.065Z,2.37
2023-05-24T07:49:01.829Z,1.63
2023-05-24T07:50:01.854Z,1.17
2023-05-24T07:51:01.909Z,0.88
2023-05-24T07:52:01.968Z,0.77
2023-05-24T07:53:02.027Z,0.71
2023-05-24T07:54:02.101Z,0.67
2023-05-24T07:55:02.142Z,0.67
2023-05-24T07:56:02.245Z,0.65
2023-05-24T07:57:02.304Z,0.73
2023-05-24T07:58:02.352Z,0.73
2023-05-24T07:59:02.404Z,0.65
2023-05-24T08:00:02.507Z,0.62
2023-05-24T08:01:02.588Z,0.63
2023-05-24T08:02:02.651Z,0.59
2023-05-24T08:03:02.744Z,0.57
2023-05-24T08:04:02.912Z,0.49
2023-05-24T08:05:02.910Z,0.50
2023-05-24T08:06:02.983Z,0.54
2023-05-24T08:07:03.080Z,0.50
2023-05-24T08:08:03.153Z,0.50
2023-05-24T08:09:03.205Z,0.53
2023-05-24T08:10:03.290Z,0.50
2023-05-24T08:11:03.424Z,0.50
2023-05-24T08:12:03.438Z,0.51
2023-05-24T08:13:03.476Z,0.52
2023-05-24T08:14:03.599Z,0.51
2023-05-24T08:15:03.587Z,0.52
2023-05-24T08:16:03.704Z,0.53
2023-05-24T08:17:03.723Z,0.55
2023-05-24T08:18:03.787Z,0.55
2023-05-24T08:19:03.775Z,0.54
2023-05-24T08:20:03.846Z,0.52
2023-05-24T08:21:03.792Z,0.52
2023-05-24T08:22:03.811Z,0.50
2023-05-24T08:23:03.854Z,0.50
2023-05-24T08:24:06.058Z,0.50
2023-05-24T08:25:03.868Z,0.51
2023-05-24T08:26:03.904Z,0.51
2023-05-24T08:27:03.946Z,0.52
2023-05-24T08:28:04.032Z,0.54
2023-05-24T08:29:03.993Z,0.54
2023-05-24T08:30:04.019Z,0.55
2023-05-24T08:31:04.041Z,0.55
2023-05-24T08:32:04.050Z,0.57
2023-05-24T08:33:04.138Z,0.58
2023-05-24T08:34:04.095Z,0.60
2023-05-24T08:35:19.289Z,0.66
2023-05-24T08:36:05.164Z,0.58
2023-05-24T08:37:04.245Z,0.65
2023-05-24T08:38:04.188Z,0.79
2023-05-24T08:39:04.192Z,1.13
2023-05-24T08:40:04.235Z,1.78
2023-05-24T08:41:04.348Z,2.16
2023-05-24T08:42:09.687Z,2.53
2023-05-24T08:43:05.348Z,2.54
2023-05-24T08:44:04.358Z,2.62
2023-05-24T08:45:04.336Z,2.86
2023-05-24T08:46:04.411Z,3.40
2023-05-24T08:47:04.376Z,4.44
2023-05-24T08:48:04.463Z,5.24
2023-05-24T08:49:04.570Z,5.59
2023-05-24T08:50:04.441Z,5.48
2023-05-24T08:51:04.659Z,5.41
2023-05-24T08:52:04.541Z,5.80
2023-05-24T08:53:04.601Z,5.82
2023-05-24T08:54:04.572Z,5.82
2023-05-24T08:55:04.579Z,5.42
2023-05-24T08:56:04.578Z,5.53
2023-05-24T08:57:04.677Z,5.66
2023-05-24T08:58:04.627Z,5.21
2023-05-24T08:59:04.675Z,5.28
2023-05-24T09:00:04.713Z,5.03
2023-05-24T09:01:04.814Z,5.16
2023-05-24T09:02:04.804Z,5.27
2023-05-24T09:03:04.893Z,5.14
2023-05-24T09:04:04.838Z,5.21
2023-05-24T09:05:04.761Z,5.41
2023-05-24T09:06:04.802Z,5.67
2023-05-24T09:07:04.854Z,6.37
2023-05-24T09:08:04.828Z,6.38
2023-05-24T09:09:04.839Z,6.71
2023-05-24T09:10:04.880Z,6.40
2023-05-24T09:11:05.094Z,6.41
2023-05-24T09:12:05.027Z,5.98
2023-05-24T09:13:05.182Z,5.40
2023-05-24T09:14:05.145Z,4.99
2023-05-24T09:15:05.227Z,5.36
2023-05-24T09:16:05.340Z,5.31
2023-05-24T09:17:05.441Z,5.13
2023-05-24T09:18:05.565Z,5.55
2023-05-24T09:19:05.474Z,5.56
2023-05-24T09:20:05.549Z,5.58
2023-05-24T09:21:05.542Z,5.74
2023-05-24T09:22:05.566Z,5.97
2023-05-24T09:23:05.585Z,6.16
2023-05-24T09:24:05.580Z,6.69
2023-05-24T09:25:05.639Z,6.18
2023-05-24T09:26:05.625Z,6.33
2023-05-24T09:27:05.636Z,5.70
2023-05-24T09:28:05.644Z,5.28
2023-05-24T09:29:05.671Z,5.05
2023-05-24T09:30:05.760Z,4.91
2023-05-24T09:31:07.884Z,4.74
2023-05-24T09:32:06.085Z,4.74
2023-05-24T09:33:06.034Z,4.44
2023-05-24T09:34:06.062Z,4.41
2023-05-24T09:35:06.114Z,4.24
2023-05-24T09:36:06.240Z,4.37
2023-05-24T09:37:06.341Z,4.51
2023-05-24T09:38:06.307Z,4.58
2023-05-24T09:39:06.455Z,4.90
2023-05-24T09:40:06.475Z,5.14
2023-05-24T09:41:06.528Z,5.15
2023-05-24T09:42:06.509Z,5.21
2023-05-24T09:43:06.519Z,5.17
2023-05-24T09:44:06.518Z,5.27
2023-05-24T09:45:06.589Z,5.35
2023-05-24T09:46:06.560Z,5.29
2023-05-24T09:47:06.679Z,5.41
2023-05-24T09:48:06.650Z,5.48
2023-05-24T09:49:06.659Z,5.27
2023-05-24T09:50:06.746Z,5.15
2023-05-24T09:51:06.837Z,4.99
2023-05-24T09:52:06.765Z,5.26
2023-05-24T09:53:06.751Z,5.28
2023-05-24T09:54:06.801Z,5.18
2023-05-24T09:55:06.863Z,5.11
2023-05-24T09:56:06.937Z,5.35
2023-05-24T09:57:07.008Z,5.48
2023-05-24T09:58:07.095Z,5.45
2023-05-24T09:59:07.159Z,4.96
2023-05-24T10:00:07.310Z,4.65
2023-05-24T10:01:07.364Z,4.56
2023-05-24T10:02:07.384Z,4.71
2023-05-24T10:03:07.572Z,4.66
2023-05-24T10:04:09.864Z,4.42
2023-05-24T10:05:07.545Z,4.44
2023-05-24T10:06:07.630Z,4.44
2023-05-24T10:07:07.605Z,4.22
2023-05-24T10:08:07.592Z,4.07
2023-05-24T10:09:07.647Z,3.96
2023-05-24T10:10:07.838Z,3.96
2023-05-24T10:11:07.659Z,3.78
2023-05-24T10:12:07.699Z,3.97
2023-05-24T10:13:07.711Z,3.98
2023-05-24T10:14:07.740Z,4.03
2023-05-24T10:15:07.748Z,4.16
2023-05-24T10:16:07.787Z,4.74
2023-05-24T10:17:08.000Z,5.26
2023-05-24T10:18:09.148Z,5.63
2023-05-24T10:19:07.842Z,6.27
2023-05-24T10:20:07.965Z,6.62
2023-05-24T10:21:07.970Z,7.09
2023-05-24T10:22:07.934Z,6.53
2023-05-24T10:23:07.996Z,6.38
2023-05-24T10:24:09.088Z,6.37
2023-05-24T10:25:08.016Z,6.53
2023-05-24T10:26:08.054Z,6.56
2023-05-24T10:27:08.070Z,7.09
2023-05-24T10:28:08.066Z,7.33
2023-05-24T10:29:08.097Z,7.14
2023-05-24T10:30:10.052Z,7.44
2023-05-24T10:31:08.178Z,7.45
2023-05-24T10:32:08.165Z,7.46
2023-05-24T10:33:08.252Z,7.48
2023-05-24T10:34:08.833Z,7.81
2023-05-24T10:35:08.315Z,8.52
2023-05-24T10:36:09.551Z,8.58
2023-05-24T10:37:08.253Z,8.92
2023-05-24T10:38:08.495Z,8.83
2023-05-24T10:39:08.277Z,9.04
2023-05-24T10:40:08.316Z,9.33
2023-05-24T10:41:08.351Z,9.25
2023-05-24T10:42:09.896Z,9.01
2023-05-24T10:43:08.399Z,8.91
2023-05-24T10:44:09.678Z,9.08
2023-05-24T10:45:08.407Z,9.75
2023-05-24T10:46:08.489Z,9.40
2023-05-24T10:47:08.458Z,8.87
2023-05-24T10:48:08.573Z,8.70
2023-05-24T10:49:08.472Z,7.90
2023-05-24T10:50:08.508Z,7.69
2023-05-24T10:51:08.520Z,7.50
2023-05-24T10:52:08.602Z,7.02
2023-05-24T10:53:08.639Z,6.12
2023-05-24T10:54:09.294Z,5.95
2023-05-24T10:55:08.859Z,5.62
2023-05-24T10:56:08.856Z,5.19
2023-05-24T10:57:08.950Z,4.86
2023-05-24T10:58:09.008Z,4.72
2023-05-24T10:59:09.085Z,4.72
2023-05-24T11:00:09.256Z,4.60
2023-05-24T11:01:09.232Z,4.74
2023-05-24T11:02:09.469Z,4.73
2023-05-24T11:03:09.625Z,4.75
2023-05-24T11:04:09.416Z,4.95
2023-05-24T11:05:09.533Z,5.06
2023-05-24T11:06:09.570Z,5.00
2023-05-24T11:07:09.680Z,5.18
2023-05-24T11:08:09.786Z,5.21
2023-05-24T11:09:09.767Z,5.50
2023-05-24T11:10:09.857Z,5.62
2023-05-24T11:11:23.410Z,5.71
2023-05-24T11:12:10.919Z,5.72
2023-05-24T11:13:09.964Z,5.77
2023-05-24T11:14:09.998Z,5.91
2023-05-24T11:15:09.981Z,6.17
2023-05-24T11:16:10.041Z,6.16
2023-05-24T11:17:10.052Z,5.84
2023-05-24T11:18:10.102Z,5.36
2023-05-24T11:19:10.064Z,5.26
2023-05-24T11:20:10.240Z,5.17
2023-05-24T11:21:10.112Z,5.06
2023-05-24T11:22:10.180Z,5.02
2023-05-24T11:23:10.217Z,4.99
2023-05-24T11:24:10.326Z,5.03
2023-05-24T11:25:10.364Z,5.14
2023-05-24T11:26:10.428Z,5.01
2023-05-24T11:27:10.506Z,5.06
2023-05-24T11:28:10.623Z,5.09
2023-05-24T11:29:10.655Z,4.95
2023-05-24T11:30:10.789Z,4.90
2023-05-24T11:31:10.824Z,4.97
2023-05-24T11:32:11.134Z,5.17
2023-05-24T11:33:10.980Z,5.41
2023-05-24T11:34:11.018Z,5.74
2023-05-24T11:35:11.101Z,5.79
2023-05-24T11:36:11.169Z,6.06
2023-05-24T11:37:11.242Z,6.41
2023-05-24T11:38:11.248Z,6.45
2023-05-24T11:39:11.279Z,6.56
2023-05-24T11:40:11.311Z,6.85
2023-05-24T11:41:11.297Z,7.29
2023-05-24T11:42:11.377Z,8.12
2023-05-24T11:43:11.346Z,8.44
2023-05-24T11:44:11.360Z,8.71
2023-05-24T11:45:11.360Z,8.87
2023-05-24T11:46:11.414Z,8.88
2023-05-24T11:47:11.415Z,9.01
2023-05-24T11:48:11.483Z,9.35
2023-05-24T11:49:11.440Z,9.89
2023-05-24T11:50:11.453Z,11.02
2023-05-24T11:51:11.472Z,11.31
2023-05-24T11:52:11.508Z,11.70
2023-05-24T11:53:11.516Z,11.58
2023-05-24T11:54:11.523Z,11.49
2023-05-24T11:55:12.203Z,11.48
2023-05-24T11:56:11.589Z,11.49
2023-05-24T11:57:11.610Z,11.48
2023-05-24T11:58:11.608Z,11.61
2023-05-24T11:59:11.690Z,11.60
2023-05-24T12:00:11.664Z,12.00
2023-05-24T12:01:11.701Z,11.78
2023-05-24T12:02:11.773Z,11.76
2023-05-24T12:03:11.938Z,11.67
2023-05-24T12:04:12.064Z,11.72
2023-05-24T12:05:11.796Z,11.58
2023-05-24T12:06:11.840Z,11.69
2023-05-24T12:07:11.918Z,11.50
2023-05-24T12:08:12.683Z,11.46
2023-05-24T12:09:12.033Z,11.22
2023-05-24T12:10:12.113Z,10.98
2023-05-24T12:11:12.185Z,11.02
2023-05-24T12:12:12.297Z,11.13
2023-05-24T12:13:12.325Z,10.87
2023-05-24T12:14:12.399Z,10.92
2023-05-24T12:15:12.414Z,10.93
2023-05-24T12:16:12.485Z,10.94
2023-05-24T12:17:12.492Z,10.91
2023-05-24T12:18:12.542Z,10.94
2023-05-24T12:19:23.940Z,10.88
2023-05-24T12:20:13.583Z,10.93
2023-05-24T12:21:12.555Z,10.91
2023-05-24T12:22:12.559Z,10.93
2023-05-24T12:23:12.562Z,11.08
2023-05-24T12:24:12.564Z,10.93
2023-05-24T12:25:12.639Z,10.93
2023-05-24T12:26:12.610Z,10.86
2023-05-24T12:27:12.633Z,11.06
2023-05-24T12:28:12.674Z,10.82
2023-05-24T12:29:12.666Z,11.02
2023-05-24T12:30:12.760Z,10.56
2023-05-24T12:31:12.749Z,10.68
2023-05-24T12:32:14.051Z,10.56
2023-05-24T12:33:12.745Z,10.57
2023-05-24T12:34:12.777Z,10.31
2023-05-24T12:35:12.813Z,10.65
2023-05-24T12:36:12.913Z,10.60
2023-05-24T12:37:13.795Z,11.27
2023-05-24T12:38:12.994Z,8.41
2023-05-24T12:39:13.009Z,6.95
2023-05-24T12:40:12.990Z,5.75
2023-05-24T12:42:32.073Z,0.50
2023-05-24T12:43:32.051Z,0.50
2023-05-24T12:44:32.050Z,0.50
2023-05-24T12:45:32.097Z,0.50
2023-05-24T12:46:32.173Z,0.50
2023-05-24T12:47:32.188Z,0.50
2023-05-24T12:48:32.145Z,0.49
2023-05-24T12:49:32.155Z,0.49
2023-05-24T12:50:32.152Z,0.50
2023-05-24T12:51:32.122Z,0.52
2023-05-24T12:52:32.165Z,0.51
2023-05-24T12:53:32.146Z,0.50
2023-05-24T12:54:32.130Z,0.50
2023-05-24T12:55:32.131Z,0.50
2023-05-24T12:56:32.164Z,0.54
2023-05-24T12:57:32.206Z,0.52
2023-05-24T12:58:32.207Z,0.53
2023-05-24T12:59:32.219Z,0.51
2023-05-24T13:00:32.234Z,0.50
2023-05-24T13:01:32.316Z,0.53
2023-05-24T13:02:32.310Z,0.53
2023-05-24T13:03:32.286Z,0.58
2023-05-24T13:04:32.313Z,0.60
2023-05-24T13:05:32.366Z,0.63
2023-05-24T13:06:32.360Z,0.60
2023-05-24T13:07:32.383Z,0.56
2023-05-24T13:08:32.414Z,0.53
2023-05-24T13:09:32.445Z,0.53
2023-05-24T13:10:32.489Z,0.50
2023-05-24T13:11:32.509Z,0.54
2023-05-24T13:12:32.564Z,0.56
2023-05-24T13:13:32.567Z,0.59
2023-05-24T13:14:32.622Z,0.63
2023-05-24T13:15:32.664Z,0.75
2023-05-24T13:16:32.846Z,0.85
2023-05-24T13:17:32.773Z,0.93
2023-05-24T13:18:32.777Z,0.82